createdAt,value
2019-03-15T00:01:41.809Z,8.80
2019-03-15T00:04:26.148Z,8.80
2019-03-15T00:07:19.611Z,8.80
2019-03-15T00:10:03.960Z,8.80
2019-03-15T00:12:48.716Z,8.70
2019-03-15T00:15:33.104Z,8.60
2019-03-15T00:18:26.733Z,8.70
2019-03-15T00:21:11.291Z,8.70
2019-03-15T00:23:56.134Z,8.70
2019-03-15T00:26:41.024Z,8.70
2019-03-15T00:29:26.064Z,8.70
2019-03-15T00:32:11.125Z,8.60
2019-03-15T00:35:05.433Z,8.50
2019-03-15T00:37:58.931Z,8.60
2019-03-15T00:40:43.628Z,8.60
2019-03-15T00:43:28.349Z,8.50
2019-03-15T00:46:12.738Z,8.50
2019-03-15T00:48:57.499Z,8.40
2019-03-15T00:51:42.072Z,8.30
2019-03-15T00:54:37.923Z,8.10
2019-03-15T00:57:23.189Z,8.10
2019-03-15T01:00:07.740Z,8.20
2019-03-15T01:02:52.475Z,8.20
2019-03-15T01:05:37.196Z,8.30
2019-03-15T01:08:21.701Z,8.40
2019-03-15T01:11:15.308Z,8.40
2019-03-15T01:14:00.309Z,8.50
2019-03-15T01:16:44.750Z,8.40
2019-03-15T01:19:30.425Z,8.40
2019-03-15T01:22:23.380Z,8.50
2019-03-15T01:25:08.661Z,8.50
2019-03-15T01:27:53.184Z,8.50
2019-03-15T01:30:37.577Z,8.50
2019-03-15T01:33:21.884Z,8.40
2019-03-15T01:36:15.741Z,8.60
2019-03-15T01:39:00.957Z,8.40
2019-03-15T01:41:45.772Z,8.50
2019-03-15T01:44:39.064Z,8.40
2019-03-15T01:47:24.508Z,8.50
2019-03-15T01:50:18.248Z,8.40
2019-03-15T01:53:02.683Z,8.50
2019-03-15T01:55:47.528Z,8.60
2019-03-15T01:58:32.592Z,8.70
2019-03-15T02:01:17.165Z,8.70
2019-03-15T02:04:01.512Z,8.70
2019-03-15T02:06:45.829Z,8.70
2019-03-15T02:09:39.544Z,8.60
2019-03-15T02:12:23.817Z,8.70
2019-03-15T02:15:08.053Z,8.70
2019-03-15T02:18:01.543Z,8.70
2019-03-15T02:20:45.969Z,8.70
2019-03-15T02:23:30.613Z,8.70
2019-03-15T02:26:15.315Z,8.80
2019-03-15T02:29:00.240Z,8.80
2019-03-15T02:31:45.290Z,8.80
2019-03-15T02:34:30.425Z,8.80
2019-03-15T02:37:15.641Z,8.60
2019-03-15T02:40:09.617Z,8.50
2019-03-15T02:43:03.852Z,8.60
2019-03-15T02:45:59.087Z,8.70
2019-03-15T02:48:43.865Z,8.70
2019-03-15T02:51:28.905Z,8.80
2019-03-15T02:54:13.963Z,8.80
2019-03-15T02:57:08.706Z,8.80
2019-03-15T02:59:53.387Z,8.70
2019-03-15T03:02:38.512Z,8.70
2019-03-15T03:05:23.485Z,8.70
2019-03-15T03:08:07.973Z,8.50
2019-03-15T03:10:53.290Z,8.40
2019-03-15T03:13:38.151Z,8.40
2019-03-15T03:16:22.931Z,8.60
2019-03-15T03:19:07.348Z,8.70
2019-03-15T03:21:52.323Z,8.60
2019-03-15T03:24:36.828Z,8.60
2019-03-15T03:27:21.690Z,8.50
2019-03-15T03:30:06.424Z,8.60
2019-03-15T03:32:51.590Z,8.60
2019-03-15T03:35:36.107Z,8.40
2019-03-15T03:38:20.442Z,8.20
2019-03-15T03:41:14.175Z,8.10
2019-03-15T03:43:59.208Z,8.10
2019-03-15T03:46:52.748Z,8.30
2019-03-15T03:49:37.901Z,8.30
2019-03-15T03:52:22.600Z,8.30
2019-03-15T03:55:07.419Z,8.20
2019-03-15T03:57:52.301Z,8.20
2019-03-15T04:00:46.557Z,8.10
2019-03-15T04:03:40.357Z,8.20
2019-03-15T04:06:25.669Z,8.20
2019-03-15T04:09:19.377Z,8.20
2019-03-15T04:12:03.799Z,8.10
2019-03-15T04:14:48.190Z,8.00
2019-03-15T04:17:32.915Z,8.10
2019-03-15T04:20:16.169Z,8.10
2019-03-15T04:26:12.501Z,7.80
2019-03-15T04:29:05.788Z,7.70
2019-03-15T04:31:51.204Z,7.40
2019-03-15T04:34:36.229Z,7.30
2019-03-15T04:37:30.265Z,7.40
2019-03-15T04:40:24.185Z,7.10
2019-03-15T04:43:09.145Z,7.10
2019-03-15T04:46:03.009Z,7.10
2019-03-15T04:48:47.932Z,7.00
2019-03-15T04:51:32.764Z,6.90
2019-03-15T04:54:17.389Z,6.80
2019-03-15T04:57:02.656Z,6.80
2019-03-15T04:59:56.313Z,6.70
2019-03-15T05:02:41.476Z,6.70
2019-03-15T05:05:35.304Z,6.70
2019-03-15T05:08:19.861Z,6.60
2019-03-15T05:11:04.434Z,6.60
2019-03-15T05:13:49.308Z,6.60
2019-03-15T05:16:33.612Z,6.60
2019-03-15T05:19:27.099Z,6.60
2019-03-15T05:22:11.980Z,6.60
2019-03-15T05:24:56.400Z,6.60
2019-03-15T05:27:41.192Z,6.70
2019-03-15T05:30:25.870Z,6.80
2019-03-15T05:33:12.043Z,6.80
2019-03-15T05:35:56.704Z,6.80
2019-03-15T05:38:41.684Z,6.80
2019-03-15T05:41:26.552Z,6.70
2019-03-15T05:44:11.065Z,6.80
2019-03-15T05:46:55.244Z,6.80
2019-03-15T05:49:40.118Z,6.70
2019-03-15T05:52:34.257Z,6.70
2019-03-15T05:55:28.062Z,6.70
2019-03-15T05:58:13.192Z,6.70
2019-03-15T06:01:06.848Z,6.70
2019-03-15T06:03:52.421Z,6.70
2019-03-15T06:06:45.805Z,6.80
2019-03-15T06:09:30.114Z,6.80
2019-03-15T06:12:14.578Z,6.80
2019-03-15T06:15:08.077Z,6.70
2019-03-15T06:17:53.290Z,6.70
2019-03-15T06:20:46.841Z,6.70
2019-03-15T06:23:32.189Z,6.70
2019-03-15T06:26:26.465Z,6.80
2019-03-15T06:29:20.417Z,6.80
2019-03-15T06:32:14.246Z,6.90
2019-03-15T06:34:59.217Z,7.00
2019-03-15T06:37:43.612Z,7.10
2019-03-15T06:40:28.356Z,7.40
2019-03-15T06:43:13.670Z,7.30
2019-03-15T06:46:07.837Z,7.40
2019-03-15T06:49:02.038Z,7.50
2019-03-15T06:51:56.161Z,7.40
2019-03-15T06:54:49.807Z,7.20
2019-03-15T06:57:34.452Z,7.20
2019-03-15T07:00:18.928Z,7.20
2019-03-15T07:03:03.953Z,7.20
2019-03-15T07:05:49.080Z,7.20
2019-03-15T07:08:34.176Z,7.10
2019-03-15T07:11:29.432Z,7.20
2019-03-15T07:14:15.577Z,7.50
2019-03-15T07:17:00.777Z,7.60
2019-03-15T07:19:45.873Z,7.70
2019-03-15T07:22:39.820Z,7.60
2019-03-15T07:25:24.897Z,7.50
2019-03-15T07:28:18.570Z,7.50
2019-03-15T07:31:03.580Z,7.60
2019-03-15T07:33:49.642Z,7.70
2019-03-15T07:36:37.135Z,7.70
2019-03-15T07:39:20.440Z,7.70
2019-03-15T07:42:05.476Z,7.60
2019-03-15T07:44:50.568Z,7.60
2019-03-15T07:47:36.096Z,7.50
2019-03-15T07:50:21.350Z,7.60
2019-03-15T07:53:06.647Z,7.50
2019-03-15T07:55:51.959Z,7.50
2019-03-15T07:58:46.690Z,7.30
2019-03-15T08:01:32.837Z,7.30
2019-03-15T08:04:17.881Z,7.30
2019-03-15T08:07:03.400Z,7.20
2019-03-15T08:09:50.771Z,7.20
2019-03-15T08:12:38.603Z,7.20
2019-03-15T08:15:22.252Z,7.10
2019-03-15T08:18:07.437Z,7.20
2019-03-15T08:20:52.216Z,7.20
2019-03-15T08:23:36.944Z,7.20
2019-03-15T08:26:21.245Z,7.20
2019-03-15T08:29:09.451Z,7.30
2019-03-15T08:31:53.046Z,7.30
2019-03-15T08:34:37.677Z,7.50
2019-03-15T08:37:22.832Z,7.70
2019-03-15T08:40:16.509Z,7.70
2019-03-15T08:43:01.337Z,7.60
2019-03-15T08:45:46.200Z,7.60
2019-03-15T08:48:31.966Z,7.50
2019-03-15T08:51:17.335Z,7.50
2019-03-15T08:54:02.532Z,7.50
2019-03-15T08:56:56.253Z,7.50
2019-03-15T08:59:53.880Z,7.50
2019-03-15T09:02:28.018Z,7.50
2019-03-15T09:05:21.557Z,7.60
2019-03-15T09:08:07.673Z,7.60
2019-03-15T09:11:02.169Z,7.70
2019-03-15T09:13:49.194Z,7.80
2019-03-15T09:16:36.110Z,7.80
2019-03-15T09:19:21.068Z,7.90
2019-03-15T09:22:05.812Z,7.90
2019-03-15T09:24:50.141Z,8.00
2019-03-15T09:27:45.410Z,8.20
2019-03-15T09:30:29.926Z,8.20
2019-03-15T09:33:14.684Z,8.30
2019-03-15T09:36:00.089Z,8.40
2019-03-15T09:38:53.792Z,8.40
2019-03-15T09:41:40.161Z,8.40
2019-03-15T09:44:24.739Z,8.50
2019-03-15T09:47:09.271Z,8.50
2019-03-15T09:49:54.532Z,8.40
2019-03-15T09:52:39.176Z,8.30
2019-03-15T09:55:33.033Z,8.40
2019-03-15T09:58:10.393Z,8.40
2019-03-15T10:00:55.036Z,8.40
2019-03-15T10:03:39.469Z,8.40
2019-03-15T10:06:24.712Z,8.40
2019-03-15T10:09:09.255Z,8.50
2019-03-15T10:11:56.543Z,8.60
2019-03-15T10:14:41.244Z,8.70
2019-03-15T10:17:25.749Z,8.70
2019-03-15T10:20:12.511Z,8.80
2019-03-15T10:23:06.005Z,8.80
2019-03-15T10:25:53.199Z,8.80
2019-03-15T10:28:46.857Z,8.80
2019-03-15T10:31:31.797Z,8.90
2019-03-15T10:34:16.919Z,9.00
2019-03-15T10:37:10.680Z,9.00
2019-03-15T10:39:55.844Z,9.00
2019-03-15T10:42:49.872Z,9.10
2019-03-15T10:45:43.808Z,9.10
2019-03-15T10:48:28.234Z,9.20
2019-03-15T10:51:13.093Z,9.40
2019-03-15T10:53:58.381Z,9.60
2019-03-15T10:56:52.380Z,9.60
2019-03-15T10:59:37.061Z,9.70
2019-03-15T11:02:22.116Z,9.90
2019-03-15T11:05:07.171Z,10.10
2019-03-15T11:07:53.741Z,10.30
2019-03-15T11:10:47.520Z,10.70
2019-03-15T11:13:32.264Z,10.90
2019-03-15T11:16:17.272Z,11.00
2019-03-15T11:19:11.412Z,11.10
2019-03-15T11:22:05.677Z,11.20
2019-03-15T11:24:59.849Z,11.30
2019-03-15T11:27:53.688Z,11.40
2019-03-15T11:30:38.692Z,11.40
2019-03-15T11:33:32.757Z,11.50
2019-03-15T11:36:26.190Z,11.50
2019-03-15T11:39:11.011Z,11.60
2019-03-15T11:41:56.020Z,11.70
2019-03-15T11:44:41.052Z,11.70
2019-03-15T11:47:26.055Z,11.70
2019-03-15T11:50:21.930Z,11.80
2019-03-15T11:53:18.710Z,11.90
2019-03-15T11:56:01.640Z,11.90
2019-03-15T11:58:56.388Z,12.00
2019-03-15T12:02:03.191Z,12.10
2019-03-15T12:04:36.831Z,12.00
2019-03-15T12:07:21.620Z,12.20
2019-03-15T12:10:06.193Z,12.20
2019-03-15T12:12:51.000Z,12.10
2019-03-15T12:15:36.508Z,12.20
2019-03-15T12:18:21.597Z,12.20
2019-03-15T12:21:06.405Z,12.10
2019-03-15T12:23:50.976Z,12.20
2019-03-15T12:26:44.631Z,12.30
2019-03-15T12:29:38.423Z,12.30
2019-03-15T12:32:23.898Z,12.30
2019-03-15T12:35:17.231Z,12.40
2019-03-15T12:38:01.843Z,12.40
2019-03-15T12:40:46.428Z,12.50
2019-03-15T12:43:31.644Z,12.50
2019-03-15T12:46:25.708Z,12.50
2019-03-15T12:49:10.428Z,12.50
2019-03-15T12:51:55.040Z,12.50
2019-03-15T12:54:49.753Z,12.50
2019-03-15T12:57:35.252Z,12.50
2019-03-15T13:00:28.516Z,12.60
2019-03-15T13:03:13.355Z,12.60
2019-03-15T13:05:58.632Z,12.60
2019-03-15T13:08:52.281Z,12.60
2019-03-15T13:11:37.049Z,12.50
2019-03-15T13:14:21.744Z,12.50
2019-03-15T13:17:06.600Z,12.60
2019-03-15T13:19:55.383Z,12.60
2019-03-15T13:22:37.684Z,12.60
2019-03-15T13:25:20.847Z,12.70
2019-03-15T13:31:40.768Z,12.70
2019-03-15T13:34:34.773Z,12.70
2019-03-15T13:37:28.960Z,12.70
2019-03-15T13:40:23.642Z,12.80
2019-03-15T13:43:08.444Z,12.80
2019-03-15T13:45:53.402Z,12.90
2019-03-15T13:48:38.042Z,12.90
2019-03-15T13:51:23.271Z,12.90
2019-03-15T13:54:07.713Z,12.90
2019-03-15T13:56:52.780Z,13.00
2019-03-15T13:59:37.460Z,13.00
2019-03-15T14:02:22.605Z,13.10
2019-03-15T14:05:07.961Z,13.10
2019-03-15T14:08:11.199Z,13.10
2019-03-15T14:10:49.787Z,13.10
2019-03-15T14:13:35.372Z,13.10
2019-03-15T14:16:20.008Z,13.10
2019-03-15T14:19:13.978Z,13.10
2019-03-15T14:22:07.597Z,13.10
2019-03-15T14:24:51.904Z,13.10
2019-03-15T14:27:37.998Z,13.10
2019-03-15T14:30:22.944Z,13.10
2019-03-15T14:33:07.852Z,13.10
2019-03-15T14:35:52.897Z,13.10
2019-03-15T14:38:38.081Z,13.10
2019-03-15T14:41:22.653Z,13.10
2019-03-15T14:44:07.990Z,13.10
2019-03-15T14:47:02.330Z,13.20
2019-03-15T14:49:55.778Z,13.20
2019-03-15T14:52:40.872Z,13.20
2019-03-15T14:55:26.076Z,13.10
2019-03-15T14:58:19.517Z,13.20
2019-03-15T15:01:04.832Z,13.20
2019-03-15T15:03:58.834Z,13.10
2019-03-15T15:06:43.856Z,13.20
2019-03-15T15:09:37.796Z,13.20
2019-03-15T15:12:33.530Z,13.20
2019-03-15T15:15:18.004Z,13.20
2019-03-15T15:18:02.980Z,13.20
2019-03-15T15:20:48.589Z,13.20
2019-03-15T15:23:44.904Z,13.20
2019-03-15T15:26:29.965Z,13.20
2019-03-15T15:29:14.668Z,13.20
2019-03-15T15:31:58.861Z,13.20
2019-03-15T15:34:43.664Z,13.20
2019-03-15T15:37:28.848Z,13.20
2019-03-15T15:40:13.601Z,13.30
2019-03-15T15:42:58.805Z,13.20
2019-03-15T15:45:43.693Z,13.30
2019-03-15T15:48:28.687Z,13.20
2019-03-15T15:51:22.785Z,13.30
2019-03-15T15:54:16.779Z,13.30
2019-03-15T15:57:02.052Z,13.30
2019-03-15T15:59:55.593Z,13.20
2019-03-15T16:02:40.262Z,13.20
2019-03-15T16:05:24.903Z,13.20
2019-03-15T16:08:09.620Z,13.20
2019-03-15T16:10:54.372Z,13.20
2019-03-15T16:13:39.465Z,13.20
2019-03-15T16:16:24.870Z,13.20
2019-03-15T16:19:18.669Z,13.20
2019-03-15T16:22:03.435Z,13.30
2019-03-15T16:24:48.240Z,13.30
2019-03-15T16:27:32.784Z,13.20
2019-03-15T16:30:18.143Z,13.20
2019-03-15T16:33:12.017Z,13.20
2019-03-15T16:35:57.396Z,13.20
2019-03-15T16:38:50.989Z,13.30
2019-03-15T16:41:35.400Z,13.20
2019-03-15T16:44:20.035Z,13.10
2019-03-15T16:47:05.290Z,13.10
2019-03-15T16:49:50.452Z,13.00
2019-03-15T16:55:49.636Z,13.10
2019-03-15T16:58:44.824Z,13.10
2019-03-15T17:01:21.084Z,13.20
2019-03-15T17:04:06.022Z,13.10
2019-03-15T17:06:50.892Z,13.10
2019-03-15T17:09:36.074Z,13.10
2019-03-15T17:12:29.709Z,13.10
2019-03-15T17:15:14.476Z,13.10
2019-03-15T17:17:57.661Z,13.10
2019-03-15T17:20:42.556Z,13.20
2019-03-15T17:23:27.348Z,13.10
2019-03-15T17:26:11.899Z,13.10
2019-03-15T17:28:58.797Z,13.10
2019-03-15T17:31:42.571Z,13.10
2019-03-15T17:34:27.965Z,13.00
2019-03-15T17:37:12.185Z,13.10
2019-03-15T17:39:57.497Z,13.10
2019-03-15T17:42:42.612Z,13.10
2019-03-15T17:45:27.173Z,13.10
2019-03-15T17:48:12.056Z,13.10
2019-03-15T17:50:57.020Z,13.00
2019-03-15T17:53:41.988Z,13.10
2019-03-15T17:56:35.700Z,13.10
2019-03-15T17:59:20.012Z,13.00
2019-03-15T18:02:04.788Z,12.90
2019-03-15T18:04:49.823Z,13.00
2019-03-15T18:07:34.591Z,13.00
2019-03-15T18:10:18.908Z,13.00
2019-03-15T18:13:12.863Z,13.10
2019-03-15T18:16:06.425Z,13.00
2019-03-15T18:18:51.528Z,13.10
2019-03-15T18:21:36.553Z,13.00
2019-03-15T18:24:30.260Z,13.00
2019-03-15T18:27:14.781Z,13.00
2019-03-15T18:29:59.776Z,13.10
2019-03-15T18:32:44.740Z,13.00
2019-03-15T18:35:34.119Z,13.00
2019-03-15T18:38:24.830Z,13.00
2019-03-15T18:41:09.408Z,13.00
2019-03-15T18:43:54.533Z,13.00
2019-03-15T18:46:39.629Z,12.80
2019-03-15T18:49:24.365Z,12.80
2019-03-15T18:52:08.968Z,12.90
2019-03-15T18:54:53.797Z,12.90
2019-03-15T18:57:48.334Z,12.90
2019-03-15T19:00:32.976Z,12.90
2019-03-15T19:03:17.828Z,12.90
2019-03-15T19:06:02.560Z,12.90
2019-03-15T19:08:47.808Z,12.80
2019-03-15T19:11:45.404Z,12.90
2019-03-15T19:14:39.089Z,12.90
2019-03-15T19:17:23.772Z,12.90
2019-03-15T19:20:08.632Z,12.90
2019-03-15T19:22:53.017Z,12.90
2019-03-15T19:25:37.998Z,12.90
2019-03-15T19:28:23.157Z,12.80
2019-03-15T19:31:07.966Z,12.90
2019-03-15T19:33:52.665Z,12.90
2019-03-15T19:36:37.209Z,12.80
2019-03-15T19:39:22.203Z,12.80
2019-03-15T19:42:06.779Z,12.80
2019-03-15T19:44:51.368Z,12.80
2019-03-15T19:47:36.366Z,12.70
2019-03-15T19:50:21.343Z,12.80
2019-03-15T19:53:06.266Z,12.80
2019-03-15T19:55:51.548Z,12.90
2019-03-15T19:58:45.432Z,12.90
2019-03-15T20:01:30.194Z,12.90
2019-03-15T20:04:15.106Z,12.90
2019-03-15T20:06:59.780Z,12.90
2019-03-15T20:09:43.008Z,13.00
2019-03-15T20:16:01.788Z,12.80
2019-03-15T20:18:46.565Z,12.80
2019-03-15T20:21:31.326Z,12.80
2019-03-15T20:24:15.839Z,12.80
2019-03-15T20:27:01.030Z,12.70
2019-03-15T20:29:46.386Z,12.60
2019-03-15T20:32:31.328Z,12.60
2019-03-15T20:35:24.708Z,12.60
2019-03-15T20:38:09.659Z,12.60
2019-03-15T20:40:54.808Z,12.50
2019-03-15T20:43:40.178Z,12.50
2019-03-15T20:46:35.905Z,12.40
2019-03-15T20:49:18.261Z,12.40
2019-03-15T20:52:02.847Z,12.50
2019-03-15T20:54:48.077Z,12.40
2019-03-15T20:57:32.712Z,12.50
2019-03-15T21:00:17.504Z,12.50
2019-03-15T21:03:03.084Z,12.40
2019-03-15T21:05:56.553Z,12.30
2019-03-15T21:08:41.313Z,12.40
2019-03-15T21:11:25.724Z,12.20
2019-03-15T21:14:10.219Z,12.10
2019-03-15T21:16:55.619Z,12.10
2019-03-15T21:19:40.312Z,12.20
2019-03-15T21:22:25.125Z,12.20
2019-03-15T21:25:09.425Z,12.20
2019-03-15T21:27:54.854Z,12.10
2019-03-15T21:30:48.396Z,12.20
2019-03-15T21:33:26.632Z,12.30
2019-03-15T21:36:20.477Z,12.30
2019-03-15T21:39:05.555Z,12.30
2019-03-15T21:41:59.384Z,12.30
2019-03-15T21:44:44.364Z,12.30
2019-03-15T21:47:39.313Z,12.30
2019-03-15T21:50:24.252Z,12.40
2019-03-15T21:53:09.232Z,12.40
2019-03-15T21:55:53.864Z,12.30
2019-03-15T21:58:38.572Z,12.30
2019-03-15T22:01:23.545Z,12.30
2019-03-15T22:04:08.469Z,12.30
2019-03-15T22:06:53.204Z,12.40
2019-03-15T22:09:38.422Z,12.30
2019-03-15T22:12:32.430Z,12.40
2019-03-15T22:15:17.584Z,12.30
2019-03-15T22:18:11.169Z,12.30
2019-03-15T22:20:55.972Z,12.30
2019-03-15T22:23:40.233Z,12.20
2019-03-15T22:26:35.509Z,12.20
2019-03-15T22:29:29.012Z,12.30
2019-03-15T22:32:14.244Z,12.40
2019-03-15T22:35:08.009Z,12.50
2019-03-15T22:37:52.934Z,12.30
2019-03-15T22:40:37.921Z,12.20
2019-03-15T22:43:51.883Z,12.30
2019-03-15T22:46:36.416Z,12.40
2019-03-15T22:49:21.700Z,12.40
2019-03-15T22:52:06.386Z,12.40
2019-03-15T22:54:51.776Z,12.30
2019-03-15T22:57:37.340Z,12.40
2019-03-15T23:00:24.201Z,12.50
2019-03-15T23:03:10.697Z,12.40
2019-03-15T23:06:04.501Z,12.30
2019-03-15T23:08:48.936Z,12.10
2019-03-15T23:11:33.890Z,12.20
2019-03-15T23:14:18.548Z,12.10
2019-03-15T23:17:03.189Z,12.00
2019-03-15T23:19:48.202Z,12.20
2019-03-15T23:22:32.813Z,12.20
2019-03-15T23:25:17.305Z,12.00
2019-03-15T23:28:10.654Z,11.90
2019-03-15T23:30:55.428Z,11.80
2019-03-15T23:33:40.117Z,12.00
2019-03-15T23:36:24.596Z,12.00
2019-03-15T23:42:20.177Z,12.10
2019-03-15T23:45:04.762Z,12.10
2019-03-15T23:47:50.021Z,12.20
2019-03-15T23:50:35.241Z,12.10
2019-03-15T23:53:28.877Z,12.10
2019-03-15T23:56:13.594Z,12.20
2019-03-15T23:58:58.254Z,12.10
